sensor_id;sensor_type;location;lat;lon;timestamp;P1;durP1;ratioP1;P2;durP2;ratioP2
48524;SDS011;34316;51.514;-0.178;2024-03-02T00:00:41;29.23;;;21.42;;
48524;SDS011;34316;51.514;-0.178;2024-03-02T00:02:43;30.35;;;21.63;;
48524;SDS011;34316;51.514;-0.178;2024-03-02T00:04:45;30.45;;;21.58;;
48524;SDS011;34316;51.514;-0.178;2024-03-02T00:06:47;30.58;;;22.95;;
48524;SDS011;34316;51.514;-0.178;2024-03-02T00:08:56;28.50;;;21.52;;
48524;SDS011;34316;51.514;-0.178;2024-03-02T00:10:59;29.63;;;22.50;;
48524;SDS011;34316;51.514;-0.178;2024-03-02T00:13:04;30.88;;;20.98;;
48524;SDS011;34316;51.514;-0.178;2024-03-02T00:15:06;25.48;;;19.33;;
48524;SDS011;34316;51.514;-0.178;2024-03-02T00:17:24;25.40;;;20.57;;
48524;SDS011;34316;51.514;-0.178;2024-03-02T00:19:27;25.98;;;20.02;;
48524;SDS011;34316;51.514;-0.178;2024-03-02T00:21:29;28.35;;;21.02;;
48524;SDS011;34316;51.514;-0.178;2024-03-02T00:23:32;33.28;;;21.88;;
48524;SDS011;34316;51.514;-0.178;2024-03-02T00:25:38;26.02;;;21.13;;
48524;SDS011;34316;51.514;-0.178;2024-03-02T00:27:48;31.63;;;21.13;;
48524;SDS011;34316;51.514;-0.178;2024-03-02T00:29:51;28.90;;;21.02;;
48524;SDS011;34316;51.514;-0.178;2024-03-02T00:31:53;28.05;;;22.13;;
48524;SDS011;34316;51.514;-0.178;2024-03-02T00:33:55;29.38;;;21.98;;
48524;SDS011;34316;51.514;-0.178;2024-03-02T00:36:06;27.58;;;21.35;;
48524;SDS011;34316;51.514;-0.178;2024-03-02T00:38:09;30.48;;;22.17;;
48524;SDS011;34316;51.514;-0.178;2024-03-02T00:40:11;31.38;;;22.65;;
48524;SDS011;34316;51.514;-0.178;2024-03-02T00:42:14;33.88;;;23.17;;
48524;SDS011;34316;51.514;-0.178;2024-03-02T00:44:16;31.20;;;24.65;;
48524;SDS011;34316;51.514;-0.178;2024-03-02T00:46:21;34.22;;;24.30;;
48524;SDS011;34316;51.514;-0.178;2024-03-02T00:48:24;34.40;;;23.92;;
48524;SDS011;34316;51.514;-0.178;2024-03-02T00:50:26;32.15;;;22.90;;
48524;SDS011;34316;51.514;-0.178;2024-03-02T00:52:31;30.40;;;23.25;;
48524;SDS011;34316;51.514;-0.178;2024-03-02T00:54:34;34.97;;;23.10;;
48524;SDS011;34316;51.514;-0.178;2024-03-02T00:56:36;28.77;;;22.17;;
48524;SDS011;34316;51.514;-0.178;2024-03-02T00:58:38;28.63;;;21.92;;
48524;SDS011;34316;51.514;-0.178;2024-03-02T01:00:40;32.42;;;23.30;;
48524;SDS011;34316;51.514;-0.178;2024-03-02T01:02:42;29.30;;;23.50;;
48524;SDS011;34316;51.514;-0.178;2024-03-02T01:04:45;32.58;;;23.52;;
48524;SDS011;34316;51.514;-0.178;2024-03-02T01:06:47;30.80;;;22.60;;
48524;SDS011;34316;51.514;-0.178;2024-03-02T01:08:50;30.63;;;22.25;;
48524;SDS011;34316;51.514;-0.178;2024-03-02T01:10:54;31.98;;;23.20;;
48524;SDS011;34316;51.514;-0.178;2024-03-02T01:12:56;28.02;;;22.85;;
48524;SDS011;34316;51.514;-0.178;2024-03-02T01:14:58;33.13;;;23.75;;
48524;SDS011;34316;51.514;-0.178;2024-03-02T01:17:00;30.13;;;22.30;;
48524;SDS011;34316;51.514;-0.178;2024-03-02T01:19:04;31.38;;;21.40;;
48524;SDS011;34316;51.514;-0.178;2024-03-02T01:21:06;30.42;;;22.02;;
48524;SDS011;34316;51.514;-0.178;2024-03-02T01:23:08;30.75;;;21.48;;
48524;SDS011;34316;51.514;-0.178;2024-03-02T01:25:11;32.40;;;22.60;;
48524;SDS011;34316;51.514;-0.178;2024-03-02T01:27:12;29.20;;;22.52;;
48524;SDS011;34316;51.514;-0.178;2024-03-02T01:29:14;29.60;;;21.98;;
48524;SDS011;34316;51.514;-0.178;2024-03-02T01:31:16;30.42;;;22.55;;
48524;SDS011;34316;51.514;-0.178;2024-03-02T01:33:18;30.55;;;22.83;;
48524;SDS011;34316;51.514;-0.178;2024-03-02T01:35:21;34.00;;;24.20;;
48524;SDS011;34316;51.514;-0.178;2024-03-02T01:37:23;30.35;;;22.83;;
48524;SDS011;34316;51.514;-0.178;2024-03-02T01:39:24;34.95;;;23.90;;
48524;SDS011;34316;51.514;-0.178;2024-03-02T01:41:26;32.00;;;22.70;;
48524;SDS011;34316;51.514;-0.178;2024-03-02T01:43:28;30.15;;;22.67;;
48524;SDS011;34316;51.514;-0.178;2024-03-02T01:45:30;32.28;;;22.35;;
48524;SDS011;34316;51.514;-0.178;2024-03-02T01:47:32;31.83;;;23.00;;
48524;SDS011;34316;51.514;-0.178;2024-03-02T01:49:34;33.72;;;22.73;;
48524;SDS011;34316;51.514;-0.178;2024-03-02T01:51:36;28.45;;;21.48;;
48524;SDS011;34316;51.514;-0.178;2024-03-02T01:53:38;30.50;;;22.17;;
48524;SDS011;34316;51.514;-0.178;2024-03-02T01:55:40;29.33;;;22.98;;
48524;SDS011;34316;51.514;-0.178;2024-03-02T01:57:42;31.42;;;22.40;;
48524;SDS011;34316;51.514;-0.178;2024-03-02T01:59:46;30.02;;;21.73;;
48524;SDS011;34316;51.514;-0.178;2024-03-02T02:01:52;28.23;;;22.27;;
48524;SDS011;34316;51.514;-0.178;2024-03-02T02:03:54;27.38;;;21.10;;
48524;SDS011;34316;51.514;-0.178;2024-03-02T02:05:56;32.80;;;21.67;;
48524;SDS011;34316;51.514;-0.178;2024-03-02T02:07:58;29.83;;;22.42;;
48524;SDS011;34316;51.514;-0.178;2024-03-02T02:10:01;30.88;;;21.88;;
48524;SDS011;34316;51.514;-0.178;2024-03-02T02:12:04;31.88;;;22.65;;
48524;SDS011;34316;51.514;-0.178;2024-03-02T02:14:08;29.95;;;22.58;;
48524;SDS011;34316;51.514;-0.178;2024-03-02T02:16:09;28.38;;;20.58;;
48524;SDS011;34316;51.514;-0.178;2024-03-02T02:18:11;30.65;;;21.80;;
48524;SDS011;34316;51.514;-0.178;2024-03-02T02:20:14;30.60;;;20.88;;
48524;SDS011;34316;51.514;-0.178;2024-03-02T02:22:16;29.08;;;21.45;;
48524;SDS011;34316;51.514;-0.178;2024-03-02T02:24:18;27.58;;;19.98;;
48524;SDS011;34316;51.514;-0.178;2024-03-02T02:26:20;32.28;;;23.63;;
48524;SDS011;34316;51.514;-0.178;2024-03-02T02:28:22;33.53;;;23.40;;
48524;SDS011;34316;51.514;-0.178;2024-03-02T02:30:25;34.55;;;24.75;;
48524;SDS011;34316;51.514;-0.178;2024-03-02T02:32:28;33.40;;;24.85;;
48524;SDS011;34316;51.514;-0.178;2024-03-02T02:34:30;35.20;;;23.77;;
48524;SDS011;34316;51.514;-0.178;2024-03-02T02:36:36;37.33;;;24.88;;
48524;SDS011;34316;51.514;-0.178;2024-03-02T02:38:42;34.30;;;24.48;;
48524;SDS011;34316;51.514;-0.178;2024-03-02T02:40:46;35.67;;;26.42;;
48524;SDS011;34316;51.514;-0.178;2024-03-02T02:42:48;39.72;;;27.92;;
48524;SDS011;34316;51.514;-0.178;2024-03-02T02:44:50;36.92;;;26.88;;
48524;SDS011;34316;51.514;-0.178;2024-03-02T02:46:52;37.90;;;28.25;;
48524;SDS011;34316;51.514;-0.178;2024-03-02T02:48:54;39.22;;;28.38;;
48524;SDS011;34316;51.514;-0.178;2024-03-02T02:50:56;40.28;;;30.65;;
48524;SDS011;34316;51.514;-0.178;2024-03-02T02:52:58;39.78;;;29.50;;
48524;SDS011;34316;51.514;-0.178;2024-03-02T02:54:59;41.50;;;30.88;;
48524;SDS011;34316;51.514;-0.178;2024-03-02T02:57:01;43.95;;;32.92;;
48524;SDS011;34316;51.514;-0.178;2024-03-02T02:59:03;43.03;;;30.58;;
48524;SDS011;34316;51.514;-0.178;2024-03-02T03:01:05;41.70;;;30.48;;
48524;SDS011;34316;51.514;-0.178;2024-03-02T03:03:07;41.13;;;30.33;;
48524;SDS011;34316;51.514;-0.178;2024-03-02T03:05:10;41.38;;;30.80;;
48524;SDS011;34316;51.514;-0.178;2024-03-02T03:07:13;41.53;;;31.13;;
48524;SDS011;34316;51.514;-0.178;2024-03-02T03:09:15;47.70;;;32.25;;
48524;SDS011;34316;51.514;-0.178;2024-03-02T03:11:17;49.13;;;33.88;;
48524;SDS011;34316;51.514;-0.178;2024-03-02T03:13:19;49.50;;;35.63;;
48524;SDS011;34316;51.514;-0.178;2024-03-02T03:15:21;49.47;;;34.90;;
48524;SDS011;34316;51.514;-0.178;2024-03-02T03:17:23;47.97;;;34.95;;
48524;SDS011;34316;51.514;-0.178;2024-03-02T03:19:25;48.03;;;34.05;;
48524;SDS011;34316;51.514;-0.178;2024-03-02T03:21:26;51.60;;;35.28;;
48524;SDS011;34316;51.514;-0.178;2024-03-02T03:23:28;48.67;;;35.70;;
48524;SDS011;34316;51.514;-0.178;2024-03-02T03:25:30;49.88;;;35.80;;
48524;SDS011;34316;51.514;-0.178;2024-03-02T03:27:32;53.85;;;36.13;;
48524;SDS011;34316;51.514;-0.178;2024-03-02T03:29:35;55.53;;;38.40;;
48524;SDS011;34316;51.514;-0.178;2024-03-02T03:31:38;51.13;;;36.65;;
48524;SDS011;34316;51.514;-0.178;2024-03-02T03:33:39;52.42;;;36.72;;
48524;SDS011;34316;51.514;-0.178;2024-03-02T03:35:41;50.58;;;36.67;;
48524;SDS011;34316;51.514;-0.178;2024-03-02T03:37:43;53.55;;;35.05;;
48524;SDS011;34316;51.514;-0.178;2024-03-02T03:39:45;47.20;;;36.33;;
48524;SDS011;34316;51.514;-0.178;2024-03-02T03:41:47;51.70;;;37.05;;
48524;SDS011;34316;51.514;-0.178;2024-03-02T03:43:49;48.00;;;35.53;;
48524;SDS011;34316;51.514;-0.178;2024-03-02T03:45:51;48.72;;;34.95;;
48524;SDS011;34316;51.514;-0.178;2024-03-02T03:47:53;50.78;;;36.72;;
48524;SDS011;34316;51.514;-0.178;2024-03-02T03:49:56;49.60;;;35.78;;
48524;SDS011;34316;51.514;-0.178;2024-03-02T03:51:58;49.38;;;34.67;;
48524;SDS011;34316;51.514;-0.178;2024-03-02T03:54:00;49.33;;;35.80;;
48524;SDS011;34316;51.514;-0.178;2024-03-02T03:56:02;46.67;;;34.92;;
48524;SDS011;34316;51.514;-0.178;2024-03-02T03:58:03;51.00;;;36.85;;
48524;SDS011;34316;51.514;-0.178;2024-03-02T04:00:05;46.90;;;33.78;;
48524;SDS011;34316;51.514;-0.178;2024-03-02T04:02:08;48.88;;;32.90;;
48524;SDS011;34316;51.514;-0.178;2024-03-02T04:04:10;46.10;;;34.40;;
48524;SDS011;34316;51.514;-0.178;2024-03-02T04:06:12;49.78;;;35.45;;
48524;SDS011;34316;51.514;-0.178;2024-03-02T04:08:15;50.90;;;34.92;;
48524;SDS011;34316;51.514;-0.178;2024-03-02T04:10:18;49.95;;;34.28;;
48524;SDS011;34316;51.514;-0.178;2024-03-02T04:12:22;48.55;;;34.05;;
48524;SDS011;34316;51.514;-0.178;2024-03-02T04:14:24;52.50;;;35.25;;
48524;SDS011;34316;51.514;-0.178;2024-03-02T04:16:25;47.75;;;33.88;;
48524;SDS011;34316;51.514;-0.178;2024-03-02T04:18:27;63.72;;;34.95;;
48524;SDS011;34316;51.514;-0.178;2024-03-02T04:20:31;46.90;;;33.78;;
48524;SDS011;34316;51.514;-0.178;2024-03-02T04:22:33;49.90;;;35.10;;
48524;SDS011;34316;51.514;-0.178;2024-03-02T04:24:36;46.22;;;34.92;;
48524;SDS011;34316;51.514;-0.178;2024-03-02T04:26:38;54.15;;;34.80;;
48524;SDS011;34316;51.514;-0.178;2024-03-02T04:28:40;48.25;;;34.08;;
48524;SDS011;34316;51.514;-0.178;2024-03-02T04:30:42;45.08;;;33.70;;
48524;SDS011;34316;51.514;-0.178;2024-03-02T04:32:44;45.95;;;32.88;;
48524;SDS011;34316;51.514;-0.178;2024-03-02T04:34:48;47.65;;;34.80;;
48524;SDS011;34316;51.514;-0.178;2024-03-02T04:36:50;47.25;;;33.60;;
48524;SDS011;34316;51.514;-0.178;2024-03-02T04:38:52;46.80;;;34.38;;
48524;SDS011;34316;51.514;-0.178;2024-03-02T04:40:53;50.65;;;35.75;;
48524;SDS011;34316;51.514;-0.178;2024-03-02T04:42:55;46.63;;;33.70;;
48524;SDS011;34316;51.514;-0.178;2024-03-02T04:44:57;49.40;;;35.50;;
48524;SDS011;34316;51.514;-0.178;2024-03-02T04:46:59;48.88;;;34.80;;
48524;SDS011;34316;51.514;-0.178;2024-03-02T04:49:01;47.55;;;35.17;;
48524;SDS011;34316;51.514;-0.178;2024-03-02T04:51:03;47.97;;;34.63;;
48524;SDS011;34316;51.514;-0.178;2024-03-02T04:53:05;49.38;;;35.75;;
48524;SDS011;34316;51.514;-0.178;2024-03-02T04:55:07;47.13;;;34.25;;
48524;SDS011;34316;51.514;-0.178;2024-03-02T04:57:26;47.75;;;33.65;;
48524;SDS011;34316;51.514;-0.178;2024-03-02T04:59:28;45.42;;;35.45;;
48524;SDS011;34316;51.514;-0.178;2024-03-02T05:01:30;47.53;;;35.33;;
48524;SDS011;34316;51.514;-0.178;2024-03-02T05:03:32;48.75;;;36.13;;
48524;SDS011;34316;51.514;-0.178;2024-03-02T05:05:36;51.85;;;35.55;;
48524;SDS011;34316;51.514;-0.178;2024-03-02T05:07:39;50.88;;;36.03;;
48524;SDS011;34316;51.514;-0.178;2024-03-02T05:11:45;56.10;;;39.78;;
48524;SDS011;34316;51.514;-0.178;2024-03-02T05:14:06;58.55;;;38.55;;
48524;SDS011;34316;51.514;-0.178;2024-03-02T05:16:08;53.38;;;38.10;;
48524;SDS011;34316;51.514;-0.178;2024-03-02T05:18:10;58.25;;;39.97;;
48524;SDS011;34316;51.514;-0.178;2024-03-02T05:20:12;62.45;;;40.40;;
48524;SDS011;34316;51.514;-0.178;2024-03-02T05:22:14;58.28;;;40.10;;
48524;SDS011;34316;51.514;-0.178;2024-03-02T05:24:16;62.28;;;41.50;;
48524;SDS011;34316;51.514;-0.178;2024-03-02T05:26:18;58.47;;;40.13;;
48524;SDS011;34316;51.514;-0.178;2024-03-02T05:28:19;54.67;;;39.00;;
48524;SDS011;34316;51.514;-0.178;2024-03-02T05:30:21;58.15;;;41.53;;
48524;SDS011;34316;51.514;-0.178;2024-03-02T05:32:23;62.75;;;41.70;;
48524;SDS011;34316;51.514;-0.178;2024-03-02T05:34:25;60.42;;;41.90;;
48524;SDS011;34316;51.514;-0.178;2024-03-02T05:36:27;60.85;;;42.55;;
48524;SDS011;34316;51.514;-0.178;2024-03-02T05:38:29;58.55;;;40.75;;
48524;SDS011;34316;51.514;-0.178;2024-03-02T05:40:31;60.63;;;42.67;;
48524;SDS011;34316;51.514;-0.178;2024-03-02T05:42:33;62.30;;;42.88;;
48524;SDS011;34316;51.514;-0.178;2024-03-02T05:44:35;65.72;;;43.15;;
48524;SDS011;34316;51.514;-0.178;2024-03-02T05:46:37;60.47;;;42.20;;
48524;SDS011;34316;51.514;-0.178;2024-03-02T05:48:41;58.33;;;41.40;;
48524;SDS011;34316;51.514;-0.178;2024-03-02T05:50:43;57.20;;;40.85;;
48524;SDS011;34316;51.514;-0.178;2024-03-02T05:52:45;60.15;;;41.53;;
48524;SDS011;34316;51.514;-0.178;2024-03-02T05:54:47;60.05;;;41.13;;
48524;SDS011;34316;51.514;-0.178;2024-03-02T05:56:50;60.03;;;41.08;;
48524;SDS011;34316;51.514;-0.178;2024-03-02T05:58:52;60.92;;;41.55;;
48524;SDS011;34316;51.514;-0.178;2024-03-02T06:01:14;56.55;;;41.38;;
48524;SDS011;34316;51.514;-0.178;2024-03-02T06:03:16;59.17;;;40.95;;
48524;SDS011;34316;51.514;-0.178;2024-03-02T06:05:18;58.30;;;41.03;;
48524;SDS011;34316;51.514;-0.178;2024-03-02T06:07:20;61.47;;;41.28;;
48524;SDS011;34316;51.514;-0.178;2024-03-02T06:09:22;56.50;;;41.50;;
48524;SDS011;34316;51.514;-0.178;2024-03-02T06:11:26;55.75;;;40.55;;
48524;SDS011;34316;51.514;-0.178;2024-03-02T06:13:28;58.00;;;40.75;;
48524;SDS011;34316;51.514;-0.178;2024-03-02T06:15:30;56.97;;;39.97;;
48524;SDS011;34316;51.514;-0.178;2024-03-02T06:17:32;56.78;;;40.22;;
48524;SDS011;34316;51.514;-0.178;2024-03-02T06:19:34;59.10;;;41.15;;
48524;SDS011;34316;51.514;-0.178;2024-03-02T06:21:36;56.08;;;39.55;;
48524;SDS011;34316;51.514;-0.178;2024-03-02T06:23:38;59.60;;;42.28;;
48524;SDS011;34316;51.514;-0.178;2024-03-02T06:25:40;55.45;;;40.75;;
48524;SDS011;34316;51.514;-0.178;2024-03-02T06:27:42;52.65;;;39.10;;
48524;SDS011;34316;51.514;-0.178;2024-03-02T06:29:43;56.47;;;41.42;;
48524;SDS011;34316;51.514;-0.178;2024-03-02T06:31:45;57.72;;;42.67;;
48524;SDS011;34316;51.514;-0.178;2024-03-02T06:34:04;59.28;;;43.03;;
48524;SDS011;34316;51.514;-0.178;2024-03-02T06:36:06;57.53;;;41.03;;
48524;SDS011;34316;51.514;-0.178;2024-03-02T06:38:13;59.58;;;42.00;;
48524;SDS011;34316;51.514;-0.178;2024-03-02T06:40:15;58.47;;;42.50;;
48524;SDS011;34316;51.514;-0.178;2024-03-02T06:42:16;58.50;;;42.15;;
48524;SDS011;34316;51.514;-0.178;2024-03-02T06:44:18;57.60;;;40.25;;
48524;SDS011;34316;51.514;-0.178;2024-03-02T06:46:20;56.97;;;38.95;;
48524;SDS011;34316;51.514;-0.178;2024-03-02T06:48:22;57.70;;;36.58;;
48524;SDS011;34316;51.514;-0.178;2024-03-02T06:50:25;52.95;;;35.80;;
48524;SDS011;34316;51.514;-0.178;2024-03-02T06:52:26;51.40;;;34.88;;
48524;SDS011;34316;51.514;-0.178;2024-03-02T06:54:28;45.40;;;33.95;;
48524;SDS011;34316;51.514;-0.178;2024-03-02T06:56:30;44.97;;;31.95;;
48524;SDS011;34316;51.514;-0.178;2024-03-02T06:58:34;41.35;;;30.10;;
48524;SDS011;34316;51.514;-0.178;2024-03-02T07:00:36;43.17;;;29.13;;
48524;SDS011;34316;51.514;-0.178;2024-03-02T07:02:38;44.33;;;28.63;;
48524;SDS011;34316;51.514;-0.178;2024-03-02T07:04:42;42.50;;;27.85;;
48524;SDS011;34316;51.514;-0.178;2024-03-02T07:06:43;42.75;;;28.67;;
48524;SDS011;34316;51.514;-0.178;2024-03-02T07:08:46;39.92;;;28.48;;
48524;SDS011;34316;51.514;-0.178;2024-03-02T07:10:47;45.10;;;27.17;;
48524;SDS011;34316;51.514;-0.178;2024-03-02T07:12:49;39.10;;;27.08;;
48524;SDS011;34316;51.514;-0.178;2024-03-02T07:14:51;39.55;;;27.20;;
48524;SDS011;34316;51.514;-0.178;2024-03-02T07:17:06;43.15;;;29.58;;
48524;SDS011;34316;51.514;-0.178;2024-03-02T07:19:08;44.30;;;29.40;;
48524;SDS011;34316;51.514;-0.178;2024-03-02T07:21:10;45.10;;;30.75;;
48524;SDS011;34316;51.514;-0.178;2024-03-02T07:23:12;39.33;;;28.75;;
48524;SDS011;34316;51.514;-0.178;2024-03-02T07:25:14;43.63;;;29.40;;
48524;SDS011;34316;51.514;-0.178;2024-03-02T07:27:19;50.45;;;33.50;;
48524;SDS011;34316;51.514;-0.178;2024-03-02T07:29:21;47.90;;;33.63;;
48524;SDS011;34316;51.514;-0.178;2024-03-02T07:31:23;46.40;;;31.48;;
48524;SDS011;34316;51.514;-0.178;2024-03-02T07:33:25;47.78;;;31.13;;
48524;SDS011;34316;51.514;-0.178;2024-03-02T07:35:27;49.22;;;30.58;;
48524;SDS011;34316;51.514;-0.178;2024-03-02T07:37:30;48.85;;;31.63;;
48524;SDS011;34316;51.514;-0.178;2024-03-02T07:39:32;44.80;;;31.67;;
48524;SDS011;34316;51.514;-0.178;2024-03-02T07:41:34;47.60;;;33.72;;
48524;SDS011;34316;51.514;-0.178;2024-03-02T07:43:36;48.72;;;32.80;;
48524;SDS011;34316;51.514;-0.178;2024-03-02T07:45:38;46.80;;;31.67;;
48524;SDS011;34316;51.514;-0.178;2024-03-02T07:47:40;50.40;;;32.85;;
48524;SDS011;34316;51.514;-0.178;2024-03-02T07:49:44;45.13;;;31.25;;
48524;SDS011;34316;51.514;-0.178;2024-03-02T07:51:46;48.67;;;32.28;;
48524;SDS011;34316;51.514;-0.178;2024-03-02T07:53:48;48.30;;;31.35;;
48524;SDS011;34316;51.514;-0.178;2024-03-02T07:55:51;45.70;;;30.13;;
48524;SDS011;34316;51.514;-0.178;2024-03-02T07:57:52;49.35;;;33.60;;
48524;SDS011;34316;51.514;-0.178;2024-03-02T07:59:54;53.65;;;37.33;;
48524;SDS011;34316;51.514;-0.178;2024-03-02T08:01:56;53.03;;;31.45;;
48524;SDS011;34316;51.514;-0.178;2024-03-02T08:04:00;45.53;;;30.17;;
48524;SDS011;34316;51.514;-0.178;2024-03-02T08:06:03;48.38;;;30.65;;
48524;SDS011;34316;51.514;-0.178;2024-03-02T08:08:05;47.13;;;30.60;;
48524;SDS011;34316;51.514;-0.178;2024-03-02T08:10:07;49.40;;;32.13;;
48524;SDS011;34316;51.514;-0.178;2024-03-02T08:12:09;48.88;;;31.70;;
48524;SDS011;34316;51.514;-0.178;2024-03-02T08:14:11;60.70;;;38.53;;
48524;SDS011;34316;51.514;-0.178;2024-03-02T08:16:14;56.55;;;38.58;;
48524;SDS011;34316;51.514;-0.178;2024-03-02T08:18:21;49.60;;;31.60;;
48524;SDS011;34316;51.514;-0.178;2024-03-02T08:20:23;46.13;;;31.65;;
48524;SDS011;34316;51.514;-0.178;2024-03-02T08:22:25;50.45;;;31.60;;
48524;SDS011;34316;51.514;-0.178;2024-03-02T08:24:27;49.63;;;31.20;;
48524;SDS011;34316;51.514;-0.178;2024-03-02T08:26:29;48.75;;;31.00;;
48524;SDS011;34316;51.514;-0.178;2024-03-02T08:28:32;50.38;;;31.23;;
48524;SDS011;34316;51.514;-0.178;2024-03-02T08:30:35;45.03;;;29.90;;
48524;SDS011;34316;51.514;-0.178;2024-03-02T08:32:36;44.92;;;30.88;;
48524;SDS011;34316;51.514;-0.178;2024-03-02T08:34:38;45.45;;;29.30;;
48524;SDS011;34316;51.514;-0.178;2024-03-02T08:36:40;47.15;;;31.30;;
48524;SDS011;34316;51.514;-0.178;2024-03-02T08:38:42;43.25;;;29.58;;
48524;SDS011;34316;51.514;-0.178;2024-03-02T08:40:45;41.28;;;29.25;;
48524;SDS011;34316;51.514;-0.178;2024-03-02T08:42:48;39.05;;;26.98;;
48524;SDS011;34316;51.514;-0.178;2024-03-02T08:44:50;43.05;;;28.02;;
48524;SDS011;34316;51.514;-0.178;2024-03-02T08:46:53;38.72;;;27.08;;
48524;SDS011;34316;51.514;-0.178;2024-03-02T08:48:55;43.47;;;28.00;;
48524;SDS011;34316;51.514;-0.178;2024-03-02T08:50:57;40.65;;;26.23;;
48524;SDS011;34316;51.514;-0.178;2024-03-02T08:52:58;40.72;;;26.73;;
48524;SDS011;34316;51.514;-0.178;2024-03-02T08:55:00;41.20;;;26.00;;
48524;SDS011;34316;51.514;-0.178;2024-03-02T08:57:02;40.92;;;27.33;;
48524;SDS011;34316;51.514;-0.178;2024-03-02T08:59:04;38.17;;;28.08;;
48524;SDS011;34316;51.514;-0.178;2024-03-02T09:01:06;36.33;;;25.63;;
48524;SDS011;34316;51.514;-0.178;2024-03-02T09:03:09;37.88;;;26.45;;
48524;SDS011;34316;51.514;-0.178;2024-03-02T09:05:12;40.67;;;27.10;;
48524;SDS011;34316;51.514;-0.178;2024-03-02T09:07:13;35.50;;;25.42;;
48524;SDS011;34316;51.514;-0.178;2024-03-02T09:09:16;37.70;;;25.52;;
48524;SDS011;34316;51.514;-0.178;2024-03-02T09:11:17;40.28;;;26.35;;
48524;SDS011;34316;51.514;-0.178;2024-03-02T09:13:19;34.55;;;25.25;;
48524;SDS011;34316;51.514;-0.178;2024-03-02T09:15:21;36.40;;;25.27;;
48524;SDS011;34316;51.514;-0.178;2024-03-02T09:17:23;33.45;;;24.70;;
48524;SDS011;34316;51.514;-0.178;2024-03-02T09:19:25;33.35;;;24.52;;
48524;SDS011;34316;51.514;-0.178;2024-03-02T09:21:27;34.85;;;24.35;;
48524;SDS011;34316;51.514;-0.178;2024-03-02T09:23:31;37.83;;;26.05;;
48524;SDS011;34316;51.514;-0.178;2024-03-02T09:25:33;37.30;;;25.80;;
48524;SDS011;34316;51.514;-0.178;2024-03-02T09:27:38;36.47;;;24.40;;
48524;SDS011;34316;51.514;-0.178;2024-03-02T09:29:40;36.05;;;23.95;;
48524;SDS011;34316;51.514;-0.178;2024-03-02T09:31:43;34.70;;;24.13;;
48524;SDS011;34316;51.514;-0.178;2024-03-02T09:33:44;32.63;;;24.20;;
48524;SDS011;34316;51.514;-0.178;2024-03-02T09:35:46;37.58;;;25.10;;
48524;SDS011;34316;51.514;-0.178;2024-03-02T09:37:50;35.03;;;25.48;;
48524;SDS011;34316;51.514;-0.178;2024-03-02T09:39:52;38.53;;;24.90;;
48524;SDS011;34316;51.514;-0.178;2024-03-02T09:41:54;32.85;;;22.85;;
48524;SDS011;34316;51.514;-0.178;2024-03-02T09:43:56;34.05;;;24.17;;
48524;SDS011;34316;51.514;-0.178;2024-03-02T09:45:59;32.95;;;24.27;;
48524;SDS011;34316;51.514;-0.178;2024-03-02T09:48:01;36.75;;;23.65;;
48524;SDS011;34316;51.514;-0.178;2024-03-02T09:50:03;34.70;;;23.23;;
48524;SDS011;34316;51.514;-0.178;2024-03-02T09:52:05;34.05;;;23.80;;
48524;SDS011;34316;51.514;-0.178;2024-03-02T09:54:08;35.30;;;24.88;;
48524;SDS011;34316;51.514;-0.178;2024-03-02T09:56:22;35.50;;;23.55;;
48524;SDS011;34316;51.514;-0.178;2024-03-02T09:58:24;33.05;;;23.33;;
48524;SDS011;34316;51.514;-0.178;2024-03-02T10:00:26;35.20;;;24.58;;
48524;SDS011;34316;51.514;-0.178;2024-03-02T10:02:28;38.83;;;26.58;;
48524;SDS011;34316;51.514;-0.178;2024-03-02T10:04:30;38.85;;;26.92;;
48524;SDS011;34316;51.514;-0.178;2024-03-02T10:06:35;45.08;;;27.17;;
48524;SDS011;34316;51.514;-0.178;2024-03-02T10:08:46;36.88;;;26.92;;
48524;SDS011;34316;51.514;-0.178;2024-03-02T10:10:50;37.30;;;25.85;;
48524;SDS011;34316;51.514;-0.178;2024-03-02T10:13:03;39.20;;;26.58;;
48524;SDS011;34316;51.514;-0.178;2024-03-02T10:15:06;37.70;;;26.33;;
48524;SDS011;34316;51.514;-0.178;2024-03-02T10:17:11;39.13;;;26.80;;
48524;SDS011;34316;51.514;-0.178;2024-03-02T10:21:19;39.47;;;26.35;;
48524;SDS011;34316;51.514;-0.178;2024-03-02T10:23:21;38.92;;;26.73;;
48524;SDS011;34316;51.514;-0.178;2024-03-02T10:25:31;38.95;;;27.15;;
48524;SDS011;34316;51.514;-0.178;2024-03-02T10:27:51;40.20;;;26.73;;
48524;SDS011;34316;51.514;-0.178;2024-03-02T10:29:53;39.13;;;26.65;;
48524;SDS011;34316;51.514;-0.178;2024-03-02T10:31:55;37.05;;;26.52;;
48524;SDS011;34316;51.514;-0.178;2024-03-02T10:33:57;41.42;;;27.52;;
48524;SDS011;34316;51.514;-0.178;2024-03-02T10:35:59;41.35;;;29.23;;
48524;SDS011;34316;51.514;-0.178;2024-03-02T10:38:03;45.78;;;30.10;;
48524;SDS011;34316;51.514;-0.178;2024-03-02T10:40:05;42.75;;;30.00;;
48524;SDS011;34316;51.514;-0.178;2024-03-02T10:42:09;45.67;;;29.38;;
48524;SDS011;34316;51.514;-0.178;2024-03-02T10:44:12;43.45;;;29.02;;
48524;SDS011;34316;51.514;-0.178;2024-03-02T10:46:15;45.38;;;29.67;;
48524;SDS011;34316;51.514;-0.178;2024-03-02T10:48:18;40.70;;;28.50;;
48524;SDS011;34316;51.514;-0.178;2024-03-02T10:50:20;40.38;;;28.23;;
48524;SDS011;34316;51.514;-0.178;2024-03-02T10:52:22;40.28;;;28.98;;
48524;SDS011;34316;51.514;-0.178;2024-03-02T10:54:24;47.88;;;32.47;;
48524;SDS011;34316;51.514;-0.178;2024-03-02T10:56:41;50.35;;;31.98;;
48524;SDS011;34316;51.514;-0.178;2024-03-02T10:58:45;50.78;;;33.03;;
48524;SDS011;34316;51.514;-0.178;2024-03-02T11:00:48;50.20;;;35.20;;
48524;SDS011;34316;51.514;-0.178;2024-03-02T11:02:52;51.35;;;33.22;;
48524;SDS011;34316;51.514;-0.178;2024-03-02T11:04:59;49.13;;;34.10;;
48524;SDS011;34316;51.514;-0.178;2024-03-02T11:07:09;51.72;;;33.83;;
48524;SDS011;34316;51.514;-0.178;2024-03-02T11:09:12;45.53;;;30.42;;
48524;SDS011;34316;51.514;-0.178;2024-03-02T11:11:15;44.85;;;30.25;;
48524;SDS011;34316;51.514;-0.178;2024-03-02T11:13:22;44.63;;;30.55;;
48524;SDS011;34316;51.514;-0.178;2024-03-02T11:15:26;44.10;;;28.60;;
48524;SDS011;34316;51.514;-0.178;2024-03-02T11:17:29;45.53;;;30.73;;
48524;SDS011;34316;51.514;-0.178;2024-03-02T11:19:31;45.03;;;30.60;;
48524;SDS011;34316;51.514;-0.178;2024-03-02T11:21:33;41.42;;;28.48;;
48524;SDS011;34316;51.514;-0.178;2024-03-02T11:23:36;47.03;;;30.48;;
48524;SDS011;34316;51.514;-0.178;2024-03-02T11:25:37;38.67;;;28.73;;
48524;SDS011;34316;51.514;-0.178;2024-03-02T11:29:52;43.08;;;29.98;;
48524;SDS011;34316;51.514;-0.178;2024-03-02T11:31:59;42.30;;;29.45;;
48524;SDS011;34316;51.514;-0.178;2024-03-02T11:34:17;43.83;;;30.55;;
48524;SDS011;34316;51.514;-0.178;2024-03-02T11:36:31;40.55;;;28.85;;
48524;SDS011;34316;51.514;-0.178;2024-03-02T11:38:34;47.17;;;29.08;;
48524;SDS011;34316;51.514;-0.178;2024-03-02T11:40:36;43.65;;;30.13;;
48524;SDS011;34316;51.514;-0.178;2024-03-02T11:42:41;41.45;;;27.42;;
48524;SDS011;34316;51.514;-0.178;2024-03-02T11:44:47;39.40;;;28.38;;
48524;SDS011;34316;51.514;-0.178;2024-03-02T11:47:00;40.95;;;27.08;;
48524;SDS011;34316;51.514;-0.178;2024-03-02T11:49:03;39.30;;;27.67;;
48524;SDS011;34316;51.514;-0.178;2024-03-02T11:51:06;38.97;;;28.77;;
48524;SDS011;34316;51.514;-0.178;2024-03-02T11:53:08;38.53;;;28.30;;
48524;SDS011;34316;51.514;-0.178;2024-03-02T11:55:11;39.10;;;26.42;;